createdAt,value
2019-04-28T00:00:54.817Z,101225.58
2019-04-28T00:03:24.060Z,101221.20
2019-04-28T00:05:53.273Z,101206.37
2019-04-28T00:08:22.574Z,101200.02
2019-04-28T00:10:53.376Z,101205.25
2019-04-28T00:13:22.712Z,101206.09
2019-04-28T00:15:52.227Z,101206.92
2019-04-28T00:18:21.977Z,101193.71
2019-04-28T00:21:13.159Z,101182.97
2019-04-28T00:24:04.228Z,101169.20
2019-04-28T00:26:41.142Z,101151.59
2019-04-28T00:29:11.143Z,101160.41
2019-04-28T00:31:41.369Z,101156.26
2019-04-28T00:34:11.485Z,101157.11
2019-04-28T00:36:43.069Z,101164.25
2019-04-28T00:39:12.734Z,101162.31
2019-04-28T00:41:42.257Z,101160.41
2019-04-28T00:44:12.019Z,101171.68
2019-04-28T00:46:42.257Z,101172.53
2019-04-28T00:49:11.993Z,101174.98
2019-04-28T00:51:41.705Z,101180.23
2019-04-28T00:54:12.139Z,101173.34
2019-04-28T00:56:42.034Z,101167.84
2019-04-28T00:59:11.936Z,101171.95
2019-04-28T01:01:47.645Z,101172.78
2019-04-28T01:04:16.936Z,101184.33
2019-04-28T01:06:46.228Z,101187.95
2019-04-28T01:09:15.513Z,101191.23
2019-04-28T01:11:44.775Z,101195.34
2019-04-28T01:14:14.176Z,101198.36
2019-04-28T01:16:49.829Z,101206.91
2019-04-28T01:19:24.640Z,101209.39
2019-04-28T01:22:13.024Z,101217.11
2019-04-28T01:24:42.749Z,101222.91
2019-04-28T01:27:33.973Z,101226.48
2019-04-28T01:30:08.636Z,101225.64
2019-04-28T01:32:42.582Z,101216.58
2019-04-28T01:35:11.926Z,101222.08
2019-04-28T01:37:41.216Z,101215.72
2019-04-28T01:40:10.701Z,101216.28
2019-04-28T01:42:41.259Z,101209.39
2019-04-28T01:45:10.791Z,101215.19
2019-04-28T01:47:40.619Z,101222.89
2019-04-28T01:50:10.316Z,101235.53
2019-04-28T01:52:40.075Z,101238.81
2019-04-28T01:55:10.143Z,101242.14
2019-04-28T01:57:40.173Z,101245.73
2019-04-28T02:00:22.930Z,101251.79
2019-04-28T02:02:45.246Z,101244.61
2019-04-28T02:05:15.372Z,101242.67
2019-04-28T02:07:44.713Z,101234.42
2019-04-28T02:10:14.175Z,101224.81
2019-04-28T02:12:43.465Z,101230.86
2019-04-28T02:15:12.712Z,101240.23
2019-04-28T02:17:42.010Z,101244.09
2019-04-28T02:20:11.630Z,101246.27
2019-04-28T02:22:55.706Z,101254.30
2019-04-28T02:25:25.035Z,101262.80
2019-04-28T02:27:57.049Z,101263.07
2019-04-28T02:30:40.924Z,101266.94
2019-04-28T02:32:56.449Z,101276.58
2019-04-28T02:35:27.525Z,101281.25
2019-04-28T02:37:56.877Z,101298.87
2019-04-28T02:40:26.209Z,101307.96
2019-04-28T02:42:55.430Z,101314.00
2019-04-28T02:45:24.793Z,101313.72
2019-04-28T02:47:57.248Z,101317.55
2019-04-28T02:50:41.187Z,101325.56
2019-04-28T02:53:24.227Z,101333.81
2019-04-28T02:55:53.611Z,101336.02
2019-04-28T02:58:22.942Z,101338.22
2019-04-28T03:01:07.395Z,101340.42
2019-04-28T03:03:23.486Z,101346.47
2019-04-28T03:05:52.721Z,101338.50
2019-04-28T03:08:22.187Z,101333.81
2019-04-28T03:10:51.580Z,101325.02
2019-04-28T03:13:21.118Z,101317.86
2019-04-28T03:15:51.528Z,101309.58
2019-04-28T03:18:21.551Z,101306.56
2019-04-28T03:20:51.812Z,101310.14
2019-04-28T03:23:21.280Z,101311.78
2019-04-28T03:26:11.136Z,101311.78
2019-04-28T03:28:55.697Z,101314.80
2019-04-28T03:32:09.478Z,101306.83
2019-04-28T03:34:23.470Z,101305.47
2019-04-28T03:36:51.837Z,101299.98
2019-04-28T03:39:21.283Z,101288.43
2019-04-28T03:41:50.734Z,101292.02
2019-04-28T03:44:20.774Z,101284.56
2019-04-28T03:46:53.322Z,101288.71
2019-04-28T03:49:32.744Z,101289.27
2019-04-28T03:52:03.315Z,101288.72
2019-04-28T03:54:32.635Z,101284.58
2019-04-28T03:57:02.069Z,101281.56
2019-04-28T03:59:31.374Z,101284.86
2019-04-28T04:02:03.256Z,101288.98
2019-04-28T04:04:32.342Z,101290.39
2019-04-28T04:07:01.733Z,101289.55
2019-04-28T04:09:53.437Z,101280.19
2019-04-28T04:12:51.100Z,101273.03
2019-04-28T04:15:54.212Z,101273.31
2019-04-28T04:18:27.565Z,101292.59
2019-04-28T04:20:57.013Z,101300.03
2019-04-28T04:23:26.259Z,101299.75
2019-04-28T04:25:55.579Z,101306.08
2019-04-28T04:28:24.900Z,101299.77
2019-04-28T04:30:54.237Z,101294.24
2019-04-28T04:33:23.569Z,101292.86
2019-04-28T04:35:52.834Z,101296.44
2019-04-28T04:38:22.092Z,101288.18
2019-04-28T04:40:51.655Z,101292.88
2019-04-28T04:43:23.285Z,101287.64
2019-04-28T04:45:54.905Z,101280.48
2019-04-28T04:48:24.273Z,101276.64
2019-04-28T04:50:53.587Z,101281.30
2019-04-28T04:53:22.913Z,101293.70
2019-04-28T04:55:52.708Z,101300.30
2019-04-28T04:58:22.136Z,101305.80
2019-04-28T05:01:16.225Z,101303.05
2019-04-28T05:03:47.241Z,101305.25
2019-04-28T05:06:34.488Z,101302.48
2019-04-28T05:09:06.462Z,101313.22
2019-04-28T05:11:35.839Z,101318.98
2019-04-28T05:14:07.504Z,101334.44
2019-04-28T05:16:36.468Z,101341.34
2019-04-28T05:19:05.769Z,101355.08
2019-04-28T05:21:35.216Z,101361.15
2019-04-28T05:24:23.454Z,101372.18
2019-04-28T05:26:52.778Z,101367.77
2019-04-28T05:29:26.837Z,101363.10
2019-04-28T05:31:54.864Z,101364.78
2019-04-28T05:34:24.595Z,101367.27
2019-04-28T05:36:53.960Z,101361.80
2019-04-28T05:39:23.283Z,101363.98
2019-04-28T05:41:52.595Z,101363.16
2019-04-28T05:44:21.939Z,101360.41
2019-04-28T05:46:51.284Z,101362.59
2019-04-28T05:49:42.334Z,101358.73
2019-04-28T05:52:29.933Z,101363.96
2019-04-28T05:55:05.829Z,101358.19
2019-04-28T05:57:42.434Z,101362.60
2019-04-28T06:00:30.741Z,101366.18
2019-04-28T06:03:00.782Z,101365.36
2019-04-28T06:05:31.808Z,101369.74
2019-04-28T06:08:32.364Z,101373.63
2019-04-28T06:11:03.279Z,101383.27
2019-04-28T06:13:32.581Z,101384.91
2019-04-28T06:16:01.825Z,101378.02
2019-04-28T06:18:31.092Z,101369.20
2019-04-28T06:21:00.607Z,101372.25
2019-04-28T06:23:30.012Z,101373.63
2019-04-28T06:25:59.357Z,101373.63
2019-04-28T06:28:28.662Z,101380.25
2019-04-28T06:30:57.976Z,101387.44
2019-04-28T06:33:27.203Z,101395.69
2019-04-28T06:35:56.478Z,101402.32
2019-04-28T06:38:25.831Z,101410.02
2019-04-28T06:40:55.136Z,101422.99
2019-04-28T06:43:24.416Z,101426.29
2019-04-28T06:45:53.711Z,101428.77
2019-04-28T06:48:22.998Z,101432.63
2019-04-28T06:50:52.307Z,101440.35
2019-04-28T06:53:21.711Z,101443.37
2019-04-28T06:55:51.070Z,101440.07
2019-04-28T06:58:20.409Z,101437.62
2019-04-28T07:00:49.721Z,101439.28
2019-04-28T07:03:23.260Z,101435.14
2019-04-28T07:05:49.942Z,101431.87
2019-04-28T07:08:19.291Z,101426.35
2019-04-28T07:10:48.619Z,101423.86
2019-04-28T07:13:20.576Z,101420.30
2019-04-28T07:15:49.040Z,101415.59
2019-04-28T07:18:18.361Z,101412.31
2019-04-28T07:21:11.381Z,101407.63
2019-04-28T07:23:41.147Z,101409.83
2019-04-28T07:26:10.399Z,101405.97
2019-04-28T07:28:39.716Z,101394.65
2019-04-28T07:31:09.273Z,101399.06
2019-04-28T07:33:38.826Z,101404.86
2019-04-28T07:36:08.579Z,101405.42
2019-04-28T07:38:38.051Z,101409.01
2019-04-28T07:41:07.337Z,101416.17
2019-04-28T07:43:36.626Z,101412.03
2019-04-28T07:46:05.933Z,101421.39
2019-04-28T07:48:35.281Z,101427.19
2019-04-28T07:51:04.620Z,101430.77
2019-04-28T07:53:39.665Z,101435.73
2019-04-28T07:56:09.044Z,101440.98
2019-04-28T07:58:38.375Z,101459.72
2019-04-28T08:01:09.447Z,101464.97
2019-04-28T08:03:48.819Z,101462.47
2019-04-28T08:06:09.811Z,101473.23
2019-04-28T08:08:39.097Z,101488.69
2019-04-28T08:11:08.385Z,101498.37
2019-04-28T08:13:37.674Z,101502.21
2019-04-28T08:16:06.980Z,101514.64
2019-04-28T08:18:36.322Z,101517.69
2019-04-28T08:21:05.658Z,101524.03
2019-04-28T08:23:46.651Z,101527.34
2019-04-28T08:26:06.069Z,101517.67
2019-04-28T08:28:35.347Z,101517.12
2019-04-28T08:31:05.995Z,101530.95
2019-04-28T08:33:39.812Z,101522.39
2019-04-28T08:36:09.232Z,101522.39
2019-04-28T08:38:38.499Z,101515.20
2019-04-28T08:41:07.893Z,101513.79
2019-04-28T08:43:37.185Z,101507.73
2019-04-28T08:46:06.537Z,101498.36
2019-04-28T08:48:35.902Z,101494.19
2019-04-28T08:51:05.255Z,101509.92
2019-04-28T08:53:34.487Z,101509.62
2019-04-28T08:56:03.791Z,101520.09
2019-04-28T08:58:33.143Z,101521.16
2019-04-28T09:01:02.473Z,101511.23
2019-04-28T09:03:31.836Z,101519.27
2019-04-28T09:06:01.525Z,101514.30
2019-04-28T09:08:30.850Z,101518.40
2019-04-28T09:11:00.172Z,101525.30
2019-04-28T09:13:29.457Z,101548.50
2019-04-28T09:15:59.192Z,101561.51
2019-04-28T09:18:28.501Z,101561.51
2019-04-28T09:20:57.828Z,101564.80
2019-04-28T09:23:27.147Z,101562.84
2019-04-28T09:25:56.431Z,101558.41
2019-04-28T09:28:25.715Z,101551.78
2019-04-28T09:30:55.043Z,101553.12
2019-04-28T09:33:24.431Z,101553.08
2019-04-28T09:35:53.762Z,101566.02
2019-04-28T09:38:24.422Z,101568.16
2019-04-28T09:40:53.755Z,101567.42
2019-04-28T09:43:26.993Z,101554.30
2019-04-28T09:46:09.758Z,101557.08
2019-04-28T09:48:39.086Z,101554.81
2019-04-28T09:51:08.339Z,101554.23
2019-04-28T09:53:37.642Z,101557.17
2019-04-28T09:56:07.026Z,101558.81
2019-04-28T09:58:36.372Z,101562.10
2019-04-28T10:01:06.051Z,101568.19
2019-04-28T10:03:35.429Z,101573.43
2019-04-28T10:06:04.780Z,101574.60
2019-04-28T10:08:36.428Z,101574.94
2019-04-28T10:11:05.114Z,101574.47
2019-04-28T10:13:34.436Z,101578.13
2019-04-28T10:16:03.921Z,101579.52
2019-04-28T10:18:33.159Z,101575.85
2019-04-28T10:21:02.525Z,101571.66
2019-04-28T10:23:31.973Z,101575.30
2019-04-28T10:26:01.365Z,101576.42
2019-04-28T10:28:30.653Z,101577.23
2019-04-28T10:31:00.003Z,101578.36
2019-04-28T10:33:29.267Z,101593.05
2019-04-28T10:35:58.565Z,101598.32
2019-04-28T10:38:27.974Z,101599.41
2019-04-28T10:41:11.087Z,101597.47
2019-04-28T10:43:40.378Z,101598.84
2019-04-28T10:46:09.700Z,101602.24
2019-04-28T10:48:39.012Z,101605.86
2019-04-28T10:51:08.483Z,101608.92
2019-04-28T10:53:37.864Z,101616.66
2019-04-28T10:56:07.174Z,101620.22
2019-04-28T10:58:36.578Z,101624.92
2019-04-28T11:01:06.532Z,101632.96
2019-04-28T11:03:35.887Z,101633.75
2019-04-28T11:06:05.234Z,101645.91
2019-04-28T11:08:53.433Z,101650.36
2019-04-28T11:11:25.819Z,101656.95
2019-04-28T11:13:55.144Z,101669.10
2019-04-28T11:16:28.335Z,101680.73
2019-04-28T11:18:57.723Z,101692.62
2019-04-28T11:21:27.043Z,101692.09
2019-04-28T11:23:56.416Z,101692.09
2019-04-28T11:26:25.895Z,101686.82
2019-04-28T11:28:55.461Z,101691.59
2019-04-28T11:31:24.850Z,101691.30
2019-04-28T11:34:01.266Z,101686.83
2019-04-28T11:36:30.568Z,101685.15
2019-04-28T11:39:00.031Z,101683.11
2019-04-28T11:41:29.322Z,101681.91
2019-04-28T11:43:58.632Z,101680.75
2019-04-28T11:46:27.982Z,101684.03
2019-04-28T11:48:57.297Z,101687.84
2019-04-28T11:51:26.606Z,101691.41
2019-04-28T11:53:55.951Z,101686.44
2019-04-28T11:56:25.265Z,101684.59
2019-04-28T11:58:54.558Z,101693.11
2019-04-28T12:01:24.246Z,101692.85
2019-04-28T12:03:56.709Z,101697.26
2019-04-28T12:06:25.996Z,101697.30
2019-04-28T12:08:58.316Z,101694.55
2019-04-28T12:11:40.326Z,101693.98
2019-04-28T12:14:22.865Z,101696.50
2019-04-28T12:17:29.094Z,101697.63
2019-04-28T12:20:08.274Z,101687.19
2019-04-28T12:22:37.655Z,101707.13
2019-04-28T12:25:07.654Z,101706.83
2019-04-28T12:27:37.001Z,101710.46
2019-04-28T12:30:06.456Z,101709.08
2019-04-28T12:32:35.756Z,101707.84
2019-04-28T12:35:05.132Z,101703.06
2019-04-28T12:37:34.523Z,101707.87
2019-04-28T12:40:04.141Z,101701.72
2019-04-28T12:42:33.462Z,101698.66
2019-04-28T12:45:02.828Z,101699.62
2019-04-28T12:47:32.103Z,101709.33
2019-04-28T12:50:07.946Z,101711.88
2019-04-28T12:52:37.257Z,101704.55
2019-04-28T12:55:06.850Z,101701.41
2019-04-28T12:57:36.175Z,101700.64
2019-04-28T13:00:23.528Z,101693.86
2019-04-28T13:03:10.210Z,101703.88
2019-04-28T13:05:40.923Z,101707.47
2019-04-28T13:08:10.237Z,101714.15
2019-04-28T13:10:39.598Z,101711.01
2019-04-28T13:13:08.890Z,101720.44
2019-04-28T13:15:38.210Z,101719.37
2019-04-28T13:18:07.545Z,101718.44
2019-04-28T13:20:36.863Z,101719.77
2019-04-28T13:23:06.159Z,101724.36
2019-04-28T13:25:35.494Z,101732.50
2019-04-28T13:28:04.814Z,101738.17
2019-04-28T13:30:34.136Z,101743.61
2019-04-28T13:33:03.575Z,101749.02
2019-04-28T13:35:33.046Z,101755.70
2019-04-28T13:38:02.404Z,101759.11
2019-04-28T13:40:33.579Z,101760.59
2019-04-28T13:43:02.874Z,101765.83
2019-04-28T13:45:32.240Z,101764.55
2019-04-28T13:48:01.562Z,101759.02
2019-04-28T13:50:34.952Z,101761.55
2019-04-28T13:53:04.483Z,101761.55
2019-04-28T13:56:04.814Z,101754.95
2019-04-28T13:58:40.793Z,101759.93
2019-04-28T14:01:27.728Z,101753.55
2019-04-28T14:04:24.857Z,101760.73
2019-04-28T14:06:57.979Z,101767.38
2019-04-28T14:09:27.335Z,101769.07
2019-04-28T14:11:56.610Z,101774.60
2019-04-28T14:14:26.114Z,101769.34
2019-04-28T14:16:55.433Z,101773.48
2019-04-28T14:19:24.728Z,101769.08
2019-04-28T14:21:54.164Z,101770.73
2019-04-28T14:24:23.438Z,101774.31
2019-04-28T14:26:52.740Z,101773.21
2019-04-28T14:29:22.042Z,101782.06
2019-04-28T14:31:51.307Z,101775.98
2019-04-28T14:34:20.648Z,101777.07
2019-04-28T14:36:49.946Z,101776.78
2019-04-28T14:39:19.256Z,101782.31
2019-04-28T14:41:48.609Z,101780.95
2019-04-28T14:44:17.964Z,101785.91
2019-04-28T14:46:47.323Z,101794.20
2019-04-28T14:49:16.618Z,101794.48
2019-04-28T14:51:45.999Z,101799.16
2019-04-28T14:54:15.314Z,101798.60
2019-04-28T14:56:44.666Z,101802.49
2019-04-28T14:59:14.046Z,101806.37
2019-04-28T15:02:08.303Z,101812.20
2019-04-28T15:04:55.178Z,101815.23
2019-04-28T15:07:42.145Z,101820.50
2019-04-28T15:10:20.286Z,101824.08
2019-04-28T15:12:49.641Z,101824.35
2019-04-28T15:15:20.103Z,101825.45
2019-04-28T15:17:49.606Z,101825.17
2019-04-28T15:20:18.976Z,101835.70
2019-04-28T15:22:48.309Z,101833.77
2019-04-28T15:25:17.616Z,101837.09
2019-04-28T15:27:46.959Z,101839.00
2019-04-28T15:30:16.341Z,101837.91
2019-04-28T15:32:45.762Z,101845.08
2019-04-28T15:35:15.815Z,101839.00
2019-04-28T15:37:45.126Z,101846.75
2019-04-28T15:40:14.849Z,101851.99
2019-04-28T15:42:44.202Z,101855.59
2019-04-28T15:45:14.029Z,101857.25
2019-04-28T15:47:43.385Z,101868.57
2019-04-28T15:50:12.864Z,101870.20
2019-04-28T15:52:42.215Z,101867.71
2019-04-28T15:55:13.905Z,101869.33
2019-04-28T15:57:43.179Z,101868.50
2019-04-28T16:00:14.040Z,101867.67
2019-04-28T16:02:43.411Z,101870.98
2019-04-28T16:05:12.959Z,101875.68
2019-04-28T16:07:42.341Z,101875.96
2019-04-28T16:10:12.112Z,101873.18
2019-04-28T16:12:41.413Z,101875.41
2019-04-28T16:15:10.995Z,101880.36
2019-04-28T16:17:40.339Z,101888.09
2019-04-28T16:20:09.724Z,101887.83
2019-04-28T16:22:39.019Z,101887.55
2019-04-28T16:25:08.453Z,101891.11
2019-04-28T16:27:37.778Z,101890.30
2019-04-28T16:30:07.276Z,101887.83
2019-04-28T16:32:36.643Z,101888.66
2019-04-28T16:35:06.012Z,101887.00
2019-04-28T16:37:39.082Z,101888.11
2019-04-28T16:40:09.492Z,101896.12
2019-04-28T16:42:43.642Z,101892.25
2019-04-28T16:45:24.004Z,101903.58
2019-04-28T16:47:53.253Z,101903.30
2019-04-28T16:50:22.578Z,101902.23
2019-04-28T16:52:51.939Z,101904.16
2019-04-28T16:55:25.543Z,101909.67
2019-04-28T16:58:12.512Z,101912.43
2019-04-28T17:00:59.571Z,101916.00
2019-04-28T17:03:30.130Z,101914.59
2019-04-28T17:05:59.424Z,101919.25
2019-04-28T17:08:28.740Z,101924.23
2019-04-28T17:10:58.204Z,101929.45
2019-04-28T17:13:27.498Z,101929.13
2019-04-28T17:15:56.875Z,101933.02
2019-04-28T17:18:26.377Z,101933.27
2019-04-28T17:20:55.636Z,101926.13
2019-04-28T17:23:24.940Z,101932.42
2019-04-28T17:25:54.507Z,101935.77
2019-04-28T17:28:23.778Z,101942.09
2019-04-28T17:30:53.091Z,101944.33
2019-04-28T17:33:22.652Z,101944.60
2019-04-28T17:35:51.936Z,101944.32
2019-04-28T17:38:21.201Z,101947.64
2019-04-28T17:40:50.681Z,101948.19
2019-04-28T17:43:20.110Z,101950.42
2019-04-28T17:45:49.630Z,101947.11
2019-04-28T17:48:27.768Z,101958.13
2019-04-28T17:50:57.095Z,101969.98
2019-04-28T17:53:26.380Z,101960.57
2019-04-28T17:55:55.844Z,101957.27
2019-04-28T17:58:25.180Z,101962.22
2019-04-28T18:01:16.540Z,101964.98
2019-04-28T18:03:57.799Z,101964.44
2019-04-28T18:06:27.515Z,101963.86
2019-04-28T18:08:56.755Z,101977.14
2019-04-28T18:11:26.088Z,101978.80
2019-04-28T18:13:55.442Z,101989.55
2019-04-28T18:16:55.621Z,101989.54
2019-04-28T18:19:25.505Z,101997.27
2019-04-28T18:21:54.845Z,101995.01
2019-04-28T18:24:24.671Z,102001.64
2019-04-28T18:26:53.915Z,102001.30
2019-04-28T18:29:23.324Z,102003.23
2019-04-28T18:32:11.560Z,102004.55
2019-04-28T18:34:45.737Z,101993.48
2019-04-28T18:37:43.177Z,102000.41
2019-04-28T18:40:34.660Z,101999.06
2019-04-28T18:43:20.581Z,102004.03
2019-04-28T18:45:49.852Z,102010.04
2019-04-28T18:48:19.314Z,102017.19
2019-04-28T18:50:48.656Z,102023.53
2019-04-28T18:53:18.055Z,102033.16
2019-04-28T18:55:47.553Z,102033.40
2019-04-28T18:58:16.885Z,102038.92
2019-04-28T19:00:53.416Z,102050.23
2019-04-28T19:03:23.153Z,102047.71
2019-04-28T19:05:53.779Z,102046.88
2019-04-28T19:08:50.925Z,102046.71
2019-04-28T19:11:42.096Z,102050.02
2019-04-28T19:14:21.305Z,102053.06
2019-04-28T19:17:09.588Z,102051.95
2019-04-28T19:19:39.377Z,102063.52
2019-04-28T19:22:08.634Z,102054.95
2019-04-28T19:24:39.050Z,102055.23
2019-04-28T19:27:08.389Z,102064.09
2019-04-28T19:29:37.779Z,102074.86
2019-04-28T19:32:07.227Z,102076.48
2019-04-28T19:34:36.546Z,102081.17
2019-04-28T19:37:05.805Z,102076.95
2019-04-28T19:39:35.316Z,102088.03
2019-04-28T19:42:05.700Z,102090.48
2019-04-28T19:44:34.976Z,102084.13
2019-04-28T19:47:04.386Z,102084.97
2019-04-28T19:49:33.951Z,102086.10
2019-04-28T19:52:03.228Z,102083.07
2019-04-28T19:54:36.261Z,102086.14
2019-04-28T19:57:10.949Z,102086.69
2019-04-28T19:59:57.654Z,102091.14
2019-04-28T20:02:28.900Z,102087.52
2019-04-28T20:04:58.238Z,102097.14
2019-04-28T20:07:27.596Z,102095.20
2019-04-28T20:09:56.924Z,102109.80
2019-04-28T20:12:26.203Z,102098.98
2019-04-28T20:14:55.825Z,102113.34
2019-04-28T20:17:25.242Z,102115.50
2019-04-28T20:19:54.530Z,102108.89
2019-04-28T20:22:23.814Z,102111.64
2019-04-28T20:24:53.470Z,102109.44
2019-04-28T20:27:23.146Z,102107.58
2019-04-28T20:29:52.420Z,102113.38
2019-04-28T20:32:21.912Z,102120.79
2019-04-28T20:34:51.356Z,102120.78
2019-04-28T20:37:30.072Z,102117.80
2019-04-28T20:40:03.465Z,102121.66
2019-04-28T20:42:43.617Z,102125.52
2019-04-28T20:45:13.609Z,102129.11
2019-04-28T20:47:43.045Z,102124.38
2019-04-28T20:50:12.827Z,102126.90
2019-04-28T20:52:42.324Z,102131.83
2019-04-28T20:55:11.960Z,102127.22
2019-04-28T20:57:41.346Z,102134.70
2019-04-28T21:00:10.647Z,102135.50
2019-04-28T21:02:39.966Z,102138.77
2019-04-28T21:05:09.451Z,102144.28
2019-04-28T21:07:38.792Z,102141.25
2019-04-28T21:10:08.294Z,102149.21
2019-04-28T21:12:37.725Z,102152.80
2019-04-28T21:15:07.589Z,102153.02
2019-04-28T21:17:37.260Z,102155.74
2019-04-28T21:20:07.128Z,102157.39
2019-04-28T21:22:36.432Z,102160.39
2019-04-28T21:25:06.299Z,102154.63
2019-04-28T21:27:35.716Z,102158.45
2019-04-28T21:30:05.256Z,102158.72
2019-04-28T21:32:34.581Z,102160.05
2019-04-28T21:35:03.879Z,102167.14
2019-04-28T21:37:33.156Z,102158.53
2019-04-28T21:40:02.496Z,102171.67
2019-04-28T21:42:50.798Z,102170.47
2019-04-28T21:45:39.019Z,102172.58
2019-04-28T21:48:08.624Z,102171.43
2019-04-28T21:50:37.947Z,102174.95
2019-04-28T21:53:07.227Z,102174.62
2019-04-28T21:55:36.594Z,102177.10
2019-04-28T21:58:05.917Z,102175.45
2019-04-28T22:00:47.262Z,102178.22
2019-04-28T22:03:16.535Z,102184.28
2019-04-28T22:05:45.938Z,102184.05
2019-04-28T22:08:15.380Z,102182.40
2019-04-28T22:10:44.713Z,102186.03
2019-04-28T22:13:14.027Z,102184.60
2019-04-28T22:15:43.349Z,102180.41
2019-04-28T22:18:12.621Z,102186.92
2019-04-28T22:20:41.929Z,102183.55
2019-04-28T22:23:18.643Z,102192.25
2019-04-28T22:25:45.221Z,102188.33
2019-04-28T22:28:14.598Z,102191.09
2019-04-28T22:30:43.971Z,102193.89
2019-04-28T22:33:13.311Z,102195.22
2019-04-28T22:35:42.619Z,102196.27
2019-04-28T22:38:12.171Z,102194.06
2019-04-28T22:40:41.542Z,102190.14
2019-04-28T22:43:10.864Z,102195.26
2019-04-28T22:45:40.343Z,102188.07
2019-04-28T22:48:11.393Z,102190.48
2019-04-28T22:50:43.208Z,102189.32
2019-04-28T22:53:13.872Z,102192.85
2019-04-28T22:55:48.473Z,102192.85
2019-04-28T22:58:32.895Z,102193.66
